createdAt,value
2022-11-15T00:00:56.675Z,101364.88
2022-11-15T00:03:25.263Z,101360.28
2022-11-15T00:05:51.766Z,101366.09
2022-11-15T00:08:18.871Z,101367.38
2022-11-15T00:10:58.243Z,101377.94
2022-11-15T00:13:24.818Z,101366.94
2022-11-15T00:15:51.406Z,101366.94
2022-11-15T00:18:18.840Z,101363.94
2022-11-15T00:20:45.339Z,101360.84
2022-11-15T00:23:11.884Z,101359.53
2022-11-15T00:25:38.428Z,101363.16
2022-11-15T00:28:05.208Z,101352.13
2022-11-15T00:30:31.679Z,101356.31
2022-11-15T00:33:03.059Z,101348.50
2022-11-15T00:35:29.384Z,101351.44
2022-11-15T00:37:55.806Z,101342.09
2022-11-15T00:40:22.232Z,101346.16
2022-11-15T00:42:48.759Z,101340.13
2022-11-15T00:45:15.272Z,101327.00
2022-11-15T00:47:41.703Z,101331.94
2022-11-15T00:50:11.699Z,101326.41
2022-11-15T00:52:40.637Z,101325.84
2022-11-15T00:55:07.349Z,101324.94
2022-11-15T00:57:33.783Z,101320.72
2022-11-15T01:00:00.280Z,101328.81
2022-11-15T01:02:26.701Z,101328.69
2022-11-15T01:04:53.100Z,101324.25
2022-11-15T01:07:19.599Z,101322.94
2022-11-15T01:09:46.081Z,101328.53
2022-11-15T01:12:12.476Z,101342.94
2022-11-15T01:14:38.891Z,101344.16
2022-11-15T01:17:05.334Z,101330.63
2022-11-15T01:19:31.746Z,101331.53
2022-11-15T01:21:58.189Z,101333.41
2022-11-15T01:24:24.624Z,101321.88
2022-11-15T01:26:51.066Z,101318.69
2022-11-15T01:29:17.582Z,101302.75
2022-11-15T01:31:44.029Z,101299.13
2022-11-15T01:34:10.464Z,101292.84
2022-11-15T01:36:37.917Z,101297.06
2022-11-15T01:39:04.456Z,101292.69
2022-11-15T01:41:33.698Z,101290.94
2022-11-15T01:44:35.597Z,101286.78
2022-11-15T01:47:07.843Z,101281.53
2022-11-15T01:49:39.190Z,101292.34
2022-11-15T01:52:10.125Z,101285.69
2022-11-15T01:54:36.751Z,101280.34
2022-11-15T01:57:07.786Z,101275.75
2022-11-15T01:59:34.589Z,101269.25
2022-11-15T02:02:01.548Z,101268.81
2022-11-15T02:04:31.151Z,101266.31
2022-11-15T02:06:58.063Z,101255.44
2022-11-15T02:09:24.603Z,101265.38
2022-11-15T02:11:52.788Z,101265.25
2022-11-15T02:14:21.054Z,101270.19
2022-11-15T02:16:58.259Z,101265.00
2022-11-15T02:19:33.802Z,101264.00
2022-11-15T02:22:07.840Z,101264.97
2022-11-15T02:24:46.200Z,101260.31
2022-11-15T02:27:30.885Z,101266.75
2022-11-15T02:30:17.213Z,101270.59
2022-11-15T02:32:49.922Z,101271.88
2022-11-15T02:35:34.704Z,101276.09
2022-11-15T02:38:13.427Z,101286.09
2022-11-15T02:40:49.887Z,101282.19
2022-11-15T02:43:44.958Z,101277.78
2022-11-15T02:46:19.448Z,101268.09
2022-11-15T02:48:46.467Z,101269.75
2022-11-15T02:51:14.433Z,101249.06
2022-11-15T02:53:40.882Z,101238.59
2022-11-15T02:56:12.810Z,101244.00
2022-11-15T02:58:44.991Z,101247.25
2022-11-15T03:01:39.238Z,101258.25
2022-11-15T03:04:08.652Z,101254.50
2022-11-15T03:06:50.979Z,101258.56
2022-11-15T03:09:47.399Z,101243.78
2022-11-15T03:12:29.772Z,101238.53
2022-11-15T03:15:22.877Z,101246.63
2022-11-15T03:17:59.297Z,101231.72
2022-11-15T03:20:28.116Z,101230.41
2022-11-15T03:22:59.105Z,101224.72
2022-11-15T03:25:28.443Z,101228.72
2022-11-15T03:28:02.435Z,101225.03
2022-11-15T03:30:31.524Z,101212.16
2022-11-15T03:32:59.740Z,101209.69
2022-11-15T03:35:30.693Z,101212.56
2022-11-15T03:38:18.270Z,101217.78
2022-11-15T03:41:02.268Z,101219.81
2022-11-15T03:43:48.424Z,101219.38
2022-11-15T03:46:28.419Z,101214.13
2022-11-15T03:49:17.219Z,101202.78
2022-11-15T03:51:44.028Z,101202.69
2022-11-15T03:54:13.799Z,101203.28
2022-11-15T03:56:40.248Z,101195.44
2022-11-15T03:59:06.688Z,101193.53
2022-11-15T04:01:33.128Z,101200.94
2022-11-15T04:03:59.604Z,101201.31
2022-11-15T04:06:26.081Z,101198.19
2022-11-15T04:08:52.529Z,101197.09
2022-11-15T04:11:18.949Z,101201.59
2022-11-15T04:13:45.368Z,101196.09
2022-11-15T04:16:11.787Z,101203.56
2022-11-15T04:18:38.429Z,101198.97
2022-11-15T04:21:23.467Z,101196.41
2022-11-15T04:23:55.664Z,101197.88
2022-11-15T04:26:24.046Z,101204.44
2022-11-15T04:29:08.976Z,101210.53
2022-11-15T04:31:35.418Z,101200.06
2022-11-15T04:34:01.852Z,101199.78
2022-11-15T04:36:46.895Z,101200.47
2022-11-15T04:39:13.327Z,101196.03
2022-11-15T04:41:39.727Z,101193.84
2022-11-15T04:44:06.152Z,101194.72
2022-11-15T04:46:32.594Z,101181.19
2022-11-15T04:48:59.574Z,101182.28
2022-11-15T04:51:26.566Z,101175.22
2022-11-15T04:53:53.599Z,101176.63
2022-11-15T04:56:20.413Z,101168.22
2022-11-15T04:58:50.240Z,101165.47
2022-11-15T05:01:17.201Z,101162.34
2022-11-15T05:04:03.216Z,101160.13
2022-11-15T05:06:30.494Z,101147.16
2022-11-15T05:08:57.358Z,101145.41
2022-11-15T05:11:24.103Z,101145.47
2022-11-15T05:13:50.610Z,101138.31
2022-11-15T05:16:17.148Z,101136.34
2022-11-15T05:18:43.604Z,101141.88
2022-11-15T05:21:13.216Z,101139.81
2022-11-15T05:23:40.432Z,101141.22
2022-11-15T05:26:09.394Z,101139.16
2022-11-15T05:28:37.464Z,101134.53
2022-11-15T05:31:07.992Z,101143.88
2022-11-15T05:33:36.203Z,101143.16
2022-11-15T05:36:08.434Z,101144.53
2022-11-15T05:38:35.030Z,101137.03
2022-11-15T05:41:03.124Z,101132.22
2022-11-15T05:43:34.629Z,101135.28
2022-11-15T05:46:01.424Z,101138.94
2022-11-15T05:48:28.034Z,101132.66
2022-11-15T05:50:54.635Z,101130.94
2022-11-15T05:53:23.630Z,101128.28
2022-11-15T05:55:50.178Z,101123.78
2022-11-15T05:58:16.705Z,101128.50
2022-11-15T06:00:44.205Z,101131.06
2022-11-15T06:03:11.430Z,101124.88
2022-11-15T06:05:37.860Z,101128.69
2022-11-15T06:08:04.486Z,101134.28
2022-11-15T06:10:30.961Z,101127.19
2022-11-15T06:13:05.622Z,101134.69
2022-11-15T06:15:34.593Z,101140.31
2022-11-15T06:18:01.617Z,101136.59
2022-11-15T06:20:29.758Z,101142.78
2022-11-15T06:23:04.665Z,101139.97
2022-11-15T06:25:31.417Z,101141.06
2022-11-15T06:27:59.581Z,101138.81
2022-11-15T06:30:28.469Z,101142.13
2022-11-15T06:33:05.608Z,101147.25
2022-11-15T06:35:34.789Z,101145.31
2022-11-15T06:38:07.493Z,101150.03
2022-11-15T06:40:38.097Z,101143.09
2022-11-15T06:43:05.904Z,101147.47
2022-11-15T06:45:32.689Z,101149.44
2022-11-15T06:47:59.557Z,101150.50
2022-11-15T06:50:26.337Z,101153.00
2022-11-15T06:52:52.894Z,101147.16
2022-11-15T06:55:19.337Z,101149.72
2022-11-15T06:57:53.242Z,101143.41
2022-11-15T07:00:21.709Z,101143.47
2022-11-15T07:02:48.769Z,101148.31
2022-11-15T07:05:16.874Z,101159.34
2022-11-15T07:07:43.400Z,101148.31
2022-11-15T07:10:10.173Z,101152.38
2022-11-15T07:12:36.813Z,101158.94
2022-11-15T07:15:03.530Z,101161.03
2022-11-15T07:17:29.972Z,101158.94
2022-11-15T07:19:56.461Z,101164.78
2022-11-15T07:22:23.019Z,101167.03
2022-11-15T07:24:49.451Z,101165.84
2022-11-15T07:27:16.055Z,101168.34
2022-11-15T07:29:42.591Z,101162.00
2022-11-15T07:32:10.290Z,101163.41
2022-11-15T07:34:36.724Z,101166.13
2022-11-15T07:37:03.190Z,101162.53
2022-11-15T07:39:30.031Z,101164.09
2022-11-15T07:42:16.495Z,101164.53
2022-11-15T07:44:42.987Z,101166.50
2022-11-15T07:47:09.427Z,101165.44
2022-11-15T07:49:35.879Z,101158.00
2022-11-15T07:52:02.375Z,101159.25
2022-11-15T07:54:28.805Z,101151.38
2022-11-15T07:56:55.215Z,101154.41
2022-11-15T07:59:21.701Z,101154.66
2022-11-15T08:01:48.416Z,101154.66
2022-11-15T08:04:15.143Z,101157.22
2022-11-15T08:06:41.710Z,101164.16
2022-11-15T08:09:08.196Z,101158.72
2022-11-15T08:11:34.648Z,101157.22
2022-11-15T08:14:01.088Z,101159.63
2022-11-15T08:16:27.548Z,101155.66
2022-11-15T08:18:54.080Z,101159.56
2022-11-15T08:21:21.980Z,101160.78
2022-11-15T08:23:48.480Z,101156.63
2022-11-15T08:26:15.565Z,101155.25
2022-11-15T08:28:42.680Z,101152.16
2022-11-15T08:31:15.771Z,101153.47
2022-11-15T08:33:42.201Z,101153.59
2022-11-15T08:36:14.386Z,101162.97
2022-11-15T08:38:41.144Z,101159.66
2022-11-15T08:41:07.918Z,101158.00
2022-11-15T08:43:34.908Z,101153.53
2022-11-15T08:46:01.592Z,101146.44
2022-11-15T08:48:28.109Z,101151.38
2022-11-15T08:50:56.434Z,101149.41
2022-11-15T08:53:23.554Z,101140.97
2022-11-15T08:55:50.026Z,101137.97
2022-11-15T08:58:16.685Z,101137.38
2022-11-15T09:00:43.163Z,101133.69
2022-11-15T09:03:10.300Z,101129.53
2022-11-15T09:05:38.579Z,101128.31
2022-11-15T09:08:19.106Z,101138.13
2022-11-15T09:10:52.393Z,101127.50
2022-11-15T09:13:18.863Z,101126.00
2022-11-15T09:15:45.297Z,101125.28
2022-11-15T09:18:11.832Z,101133.88
2022-11-15T09:20:38.363Z,101134.47
2022-11-15T09:23:06.225Z,101127.19
2022-11-15T09:25:33.271Z,101129.59
2022-11-15T09:27:59.876Z,101139.13
2022-11-15T09:30:26.622Z,101130.84
2022-11-15T09:32:53.027Z,101123.44
2022-11-15T09:35:19.508Z,101123.63
2022-11-15T09:37:46.569Z,101121.47
2022-11-15T09:40:17.367Z,101116.94
2022-11-15T09:42:52.988Z,101116.94
2022-11-15T09:46:01.950Z,101120.28
2022-11-15T09:48:43.449Z,101121.22
2022-11-15T09:51:13.871Z,101123.31
2022-11-15T09:54:51.478Z,101120.66
2022-11-15T09:57:33.739Z,101128.78
2022-11-15T10:03:24.140Z,101121.44
2022-11-15T10:05:53.591Z,101118.25
2022-11-15T10:08:28.806Z,101115.25
2022-11-15T10:11:30.674Z,101113.78
2022-11-15T10:13:51.479Z,101109.09
2022-11-15T10:16:35.619Z,101107.44
2022-11-15T10:19:15.726Z,101107.72
2022-11-15T10:22:04.390Z,101105.06
2022-11-15T10:24:36.234Z,101106.88
2022-11-15T10:27:07.381Z,101106.88
2022-11-15T10:29:33.821Z,101102.34
2022-11-15T10:32:00.303Z,101094.78
2022-11-15T10:34:27.665Z,101087.38
2022-11-15T10:36:59.287Z,101093.59
2022-11-15T10:39:26.514Z,101089.97
2022-11-15T10:41:53.048Z,101084.81
2022-11-15T10:44:29.402Z,101076.34
2022-11-15T10:46:55.862Z,101073.50
2022-11-15T10:49:29.459Z,101078.22
2022-11-15T10:51:59.197Z,101070.03
2022-11-15T10:54:31.661Z,101064.56
2022-11-15T10:57:05.679Z,101050.69
2022-11-15T10:59:39.150Z,101058.38
2022-11-15T11:02:31.082Z,101052.50
2022-11-15T11:04:57.769Z,101044.94
2022-11-15T11:07:30.522Z,101042.53
2022-11-15T11:09:59.963Z,101033.16
2022-11-15T11:12:31.139Z,101030.03
2022-11-15T11:14:59.286Z,101025.78
2022-11-15T11:17:57.397Z,101029.41
2022-11-15T11:20:37.775Z,101022.78
2022-11-15T11:23:10.311Z,101019.88
2022-11-15T11:26:04.221Z,101016.41
2022-11-15T11:28:55.217Z,101013.84
2022-11-15T11:31:35.706Z,101007.50
2022-11-15T11:34:19.692Z,101005.25
2022-11-15T11:37:04.777Z,100998.59
2022-11-15T11:39:34.312Z,100990.75
2022-11-15T11:42:28.244Z,100995.13
2022-11-15T11:44:57.713Z,100993.16
2022-11-15T11:47:31.326Z,100987.41
2022-11-15T11:50:03.928Z,100982.28
2022-11-15T11:52:49.034Z,100981.53
2022-11-15T11:55:25.177Z,100977.47
2022-11-15T11:58:14.199Z,100977.75
2022-11-15T12:00:47.397Z,100958.56
2022-11-15T12:03:27.631Z,100952.84
2022-11-15T12:06:11.648Z,100951.91
2022-11-15T12:08:54.132Z,100948.16
2022-11-15T12:11:37.112Z,100945.59
2022-11-15T12:14:10.131Z,100940.28
2022-11-15T12:16:40.577Z,100944.38
2022-11-15T12:19:08.954Z,100941.97
2022-11-15T12:22:07.598Z,100937.88
2022-11-15T12:24:46.506Z,100931.38
2022-11-15T12:27:26.302Z,100928.81
2022-11-15T12:29:57.734Z,100928.22
2022-11-15T12:32:31.466Z,100924.72
2022-11-15T12:34:59.530Z,100922.03
2022-11-15T12:37:38.744Z,100912.94
2022-11-15T12:40:21.697Z,100917.19
2022-11-15T12:42:58.969Z,100918.41
2022-11-15T12:45:38.667Z,100909.81
2022-11-15T12:48:17.347Z,100912.34
2022-11-15T12:50:55.659Z,100904.06
2022-11-15T12:53:25.396Z,100902.69
2022-11-15T12:56:04.027Z,100896.34
2022-11-15T12:58:51.742Z,100900.88
2022-11-15T13:01:33.515Z,100891.22
2022-11-15T13:04:27.890Z,100892.13
2022-11-15T13:07:07.651Z,100876.28
2022-11-15T13:09:36.896Z,100870.25
2022-11-15T13:12:35.232Z,100863.72
2022-11-15T13:15:14.151Z,100861.94
2022-11-15T13:17:54.450Z,100863.88
2022-11-15T13:20:27.847Z,100862.22
2022-11-15T13:23:05.011Z,100869.47
2022-11-15T13:25:39.872Z,100859.84
2022-11-15T13:28:15.440Z,100864.50
2022-11-15T13:30:47.916Z,100868.91
2022-11-15T13:33:24.238Z,100857.09
2022-11-15T13:35:54.036Z,100852.09
2022-11-15T13:38:30.155Z,100847.75
2022-11-15T13:40:58.700Z,100834.13
2022-11-15T13:43:31.901Z,100835.94
2022-11-15T13:46:24.191Z,100834.13
2022-11-15T13:49:17.309Z,100828.22
2022-11-15T13:51:55.337Z,100822.34
2022-11-15T13:54:30.912Z,100825.38
2022-11-15T13:57:04.338Z,100822.97
2022-11-15T13:59:49.983Z,100825.53
2022-11-15T14:02:25.826Z,100824.03
2022-11-15T14:04:56.173Z,100818.44
2022-11-15T14:07:26.440Z,100817.84
2022-11-15T14:09:53.541Z,100814.81
2022-11-15T14:12:24.893Z,100817.50
2022-11-15T14:14:52.107Z,100814.66
2022-11-15T14:17:30.485Z,100812.69
2022-11-15T14:19:58.444Z,100806.94
2022-11-15T14:22:29.242Z,100806.00
2022-11-15T14:25:19.945Z,100803.44
2022-11-15T14:28:24.710Z,100799.84
2022-11-15T14:30:57.132Z,100799.53
2022-11-15T14:33:33.229Z,100800.00
2022-11-15T14:36:14.234Z,100794.56
2022-11-15T14:38:41.422Z,100790.16
2022-11-15T14:41:16.577Z,100794.72
2022-11-15T14:43:43.005Z,100789.25
2022-11-15T14:46:09.415Z,100788.78
2022-11-15T14:48:35.881Z,100782.44
2022-11-15T14:51:02.360Z,100786.69
2022-11-15T14:53:28.843Z,100775.97
2022-11-15T14:55:55.275Z,100778.81
2022-11-15T14:58:21.751Z,100774.59
2022-11-15T15:00:48.287Z,100763.31
2022-11-15T15:03:14.718Z,100768.72
2022-11-15T15:05:43.221Z,100767.66
2022-11-15T15:08:10.955Z,100762.84
2022-11-15T15:10:43.611Z,100769.03
2022-11-15T15:13:24.280Z,100768.25
2022-11-15T15:15:52.579Z,100767.38
2022-11-15T15:18:21.024Z,100764.63
2022-11-15T15:21:00.817Z,100758.59
2022-11-15T15:23:30.163Z,100759.78
2022-11-15T15:25:56.697Z,100752.56
2022-11-15T15:28:23.176Z,100752.69
2022-11-15T15:30:50.480Z,100752.84
2022-11-15T15:33:17.234Z,100754.38
2022-11-15T15:35:43.939Z,100755.88
2022-11-15T15:38:13.106Z,100753.31
2022-11-15T15:40:40.034Z,100750.47
2022-11-15T15:43:09.789Z,100743.81
2022-11-15T15:45:39.100Z,100738.69
2022-11-15T15:48:06.267Z,100735.97
2022-11-15T15:50:35.188Z,100732.34
2022-11-15T15:53:04.157Z,100729.66
2022-11-15T15:55:30.880Z,100730.56
2022-11-15T15:57:57.353Z,100720.94
2022-11-15T16:00:25.752Z,100724.41
2022-11-15T16:02:53.335Z,100722.41
2022-11-15T16:05:20.478Z,100723.75
2022-11-15T16:07:48.226Z,100725.22
2022-11-15T16:10:21.988Z,100720.25
2022-11-15T16:12:48.896Z,100721.00
2022-11-15T16:15:15.782Z,100714.50
2022-11-15T16:17:48.263Z,100716.00
2022-11-15T16:20:50.422Z,100710.25
2022-11-15T16:23:19.150Z,100710.09
2022-11-15T16:25:47.719Z,100714.69
2022-11-15T16:28:34.691Z,100709.53
2022-11-15T16:31:05.000Z,100705.78
2022-11-15T16:33:32.419Z,100711.19
2022-11-15T16:35:59.295Z,100710.28
2022-11-15T16:38:25.841Z,100707.88
2022-11-15T16:40:52.343Z,100713.00
2022-11-15T16:43:18.861Z,100704.69
2022-11-15T16:45:45.433Z,100708.63
2022-11-15T16:48:23.500Z,100703.78
2022-11-15T16:50:50.016Z,100704.69
2022-11-15T16:53:16.456Z,100700.63
2022-11-15T16:55:43.042Z,100702.16
2022-11-15T16:58:10.476Z,100702.44
2022-11-15T17:00:36.978Z,100706.41
2022-11-15T17:03:03.871Z,100701.41
2022-11-15T17:05:30.376Z,100701.09
2022-11-15T17:07:56.860Z,100689.78
2022-11-15T17:10:24.797Z,100694.47
2022-11-15T17:12:52.179Z,100696.72
2022-11-15T17:15:19.182Z,100693.53
2022-11-15T17:17:52.617Z,100691.56
2022-11-15T17:20:21.540Z,100686.75
2022-11-15T17:22:47.971Z,100694.31
2022-11-15T17:25:14.774Z,100687.38
2022-11-15T17:27:41.286Z,100682.88
2022-11-15T17:30:08.655Z,100688.00
2022-11-15T17:32:38.307Z,100680.75
2022-11-15T17:35:11.944Z,100682.44
2022-11-15T17:37:41.835Z,100684.56
2022-11-15T17:40:08.883Z,100674.38
2022-11-15T17:42:35.409Z,100679.53
2022-11-15T17:45:06.508Z,100670.75
2022-11-15T17:47:36.007Z,100672.59
2022-11-15T17:50:02.505Z,100679.81
2022-11-15T17:52:29.058Z,100675.88
2022-11-15T17:54:55.564Z,100676.47
2022-11-15T17:57:22.025Z,100675.91
2022-11-15T17:59:48.987Z,100672.28
2022-11-15T18:02:15.461Z,100670.97
2022-11-15T18:04:41.949Z,100670.69
2022-11-15T18:07:08.509Z,100672.47
2022-11-15T18:09:35.048Z,100675.22
2022-11-15T18:12:01.600Z,100672.03
2022-11-15T18:14:28.118Z,100670.09
2022-11-15T18:16:55.053Z,100669.03
2022-11-15T18:19:21.582Z,100661.66
2022-11-15T18:21:57.240Z,100664.97
2022-11-15T18:24:29.337Z,100661.78
2022-11-15T18:26:56.548Z,100654.50
2022-11-15T18:29:24.561Z,100658.91
2022-11-15T18:31:54.988Z,100655.28
2022-11-15T18:34:23.611Z,100649.72
2022-11-15T18:36:52.394Z,100642.47
2022-11-15T18:39:19.689Z,100640.25
2022-11-15T18:41:47.307Z,100641.34
2022-11-15T18:44:14.155Z,100638.00
2022-11-15T18:46:42.018Z,100637.69
2022-11-15T18:49:10.687Z,100633.59
2022-11-15T18:51:37.940Z,100629.50
2022-11-15T18:54:04.797Z,100630.75
2022-11-15T18:56:32.783Z,100630.75
2022-11-15T18:59:01.948Z,100636.91
2022-11-15T19:01:34.644Z,100636.47
2022-11-15T19:04:11.646Z,100633.44
2022-11-15T19:06:41.161Z,100632.19
2022-11-15T19:09:09.214Z,100635.19
2022-11-15T19:11:39.384Z,100634.84
2022-11-15T19:14:11.160Z,100632.75
2022-11-15T19:16:40.440Z,100634.91
2022-11-15T19:19:18.653Z,100639.25
2022-11-15T19:21:45.651Z,100633.34
2022-11-15T19:24:12.330Z,100620.69
2022-11-15T19:26:39.230Z,100613.41
2022-11-15T19:29:07.684Z,100614.19
2022-11-15T19:31:34.398Z,100609.16
2022-11-15T19:34:04.392Z,100601.03
2022-11-15T19:36:33.703Z,100603.19
2022-11-15T19:39:05.119Z,100593.84
2022-11-15T19:41:32.272Z,100595.78
2022-11-15T19:43:58.798Z,100595.00
2022-11-15T19:46:26.819Z,100597.72
2022-11-15T19:48:53.932Z,100596.84
2022-11-15T19:51:22.722Z,100600.16
2022-11-15T19:53:52.192Z,100591.81
2022-11-15T19:56:19.693Z,100593.50
2022-11-15T19:58:46.969Z,100601.34
2022-11-15T20:01:27.836Z,100602.25
2022-11-15T20:03:55.862Z,100596.94
2022-11-15T20:06:26.455Z,100590.03
2022-11-15T20:08:53.034Z,100580.50
2022-11-15T20:11:19.810Z,100581.13
2022-11-15T20:13:47.105Z,100577.66
2022-11-15T20:16:19.858Z,100571.50
2022-11-15T20:18:47.380Z,100576.88
2022-11-15T20:21:14.307Z,100584.59
2022-11-15T20:23:41.549Z,100576.56
2022-11-15T20:26:08.874Z,100569.13
2022-11-15T20:28:37.218Z,100565.53
2022-11-15T20:31:04.066Z,100562.53
2022-11-15T20:33:30.664Z,100558.59
2022-11-15T20:35:57.150Z,100557.81
2022-11-15T20:38:24.268Z,100553.75
2022-11-15T20:40:54.800Z,100552.53
2022-11-15T20:43:25.417Z,100551.28
2022-11-15T20:45:51.924Z,100555.63
2022-11-15T20:48:18.441Z,100558.19
2022-11-15T20:50:47.125Z,100560.63
2022-11-15T20:53:17.011Z,100555.50
2022-11-15T20:55:47.674Z,100556.25
2022-11-15T20:58:15.529Z,100552.53
2022-11-15T21:00:43.189Z,100550.06
2022-11-15T21:03:10.233Z,100534.41
2022-11-15T21:05:42.035Z,100534.88
2022-11-15T21:08:10.218Z,100545.00
2022-11-15T21:10:55.591Z,100537.03
2022-11-15T21:13:22.372Z,100533.69
2022-11-15T21:15:49.093Z,100522.25
2022-11-15T21:18:15.652Z,100525.44
2022-11-15T21:20:42.446Z,100526.97
2022-11-15T21:23:09.151Z,100513.66
2022-11-15T21:25:35.925Z,100519.25
2022-11-15T21:28:02.903Z,100512.47
2022-11-15T21:30:29.579Z,100505.97
2022-11-15T21:32:56.024Z,100495.69
2022-11-15T21:35:23.714Z,100494.44
2022-11-15T21:37:56.078Z,100486.59
2022-11-15T21:40:23.518Z,100491.25
2022-11-15T21:42:49.957Z,100490.81
2022-11-15T21:45:16.640Z,100495.97
2022-11-15T21:47:46.013Z,100493.38
2022-11-15T21:50:12.923Z,100485.97
2022-11-15T21:52:40.486Z,100485.97
2022-11-15T21:55:07.361Z,100472.66
2022-11-15T21:57:33.842Z,100474.72
2022-11-15T22:00:18.956Z,100473.13
2022-11-15T22:02:45.399Z,100470.56
2022-11-15T22:05:11.971Z,100469.81
2022-11-15T22:07:38.536Z,100476.00
2022-11-15T22:10:05.576Z,100475.50
2022-11-15T22:12:32.016Z,100470.38
2022-11-15T22:14:58.455Z,100465.25
2022-11-15T22:17:44.973Z,100463.41
2022-11-15T22:20:42.534Z,100456.91
2022-11-15T22:22:59.165Z,100447.53
2022-11-15T22:25:26.319Z,100442.56
2022-11-15T22:27:53.735Z,100431.72
2022-11-15T22:30:21.070Z,100422.56
2022-11-15T22:32:51.635Z,100419.53
2022-11-15T22:35:18.075Z,100411.34
2022-11-15T22:37:44.567Z,100402.84
2022-11-15T22:40:11.028Z,100404.63
2022-11-15T22:42:37.583Z,100414.16
2022-11-15T22:45:04.403Z,100411.59
2022-11-15T22:47:30.957Z,100420.34
2022-11-15T22:49:57.818Z,100425.47
2022-11-15T22:52:24.277Z,100423.38
2022-11-15T22:54:50.815Z,100423.25
2022-11-15T22:57:17.258Z,100410.88
2022-11-15T22:59:43.735Z,100403.81
2022-11-15T23:02:10.143Z,100385.38
2022-11-15T23:04:36.591Z,100382.06
2022-11-15T23:07:03.052Z,100374.34
2022-11-15T23:09:29.659Z,100377.66
2022-11-15T23:12:14.679Z,100373.56
2022-11-15T23:14:41.120Z,100375.66
2022-11-15T23:17:07.587Z,100370.53
2022-11-15T23:19:34.051Z,100365.38
2022-11-15T23:22:19.027Z,100361.16
2022-11-15T23:24:45.461Z,100362.03
2022-11-15T23:27:15.153Z,100350.13
2022-11-15T23:30:00.126Z,100344.06
2022-11-15T23:32:45.085Z,100342.63
2022-11-15T23:35:11.540Z,100327.13
2022-11-15T23:37:37.960Z,100318.09
2022-11-15T23:40:05.289Z,100312.44
2022-11-15T23:42:31.847Z,100304.72
2022-11-15T23:44:58.325Z,100306.81
2022-11-15T23:47:24.945Z,100311.16
2022-11-15T23:49:52.139Z,100306.94
2022-11-15T23:52:18.670Z,100309.00
2022-11-15T23:54:45.158Z,100303.22
2022-11-15T23:57:12.396Z,100301.44
2022-11-15T23:59:40.353Z,100311.97
